createdAt,value
2022-08-03T00:00:43.138Z,29.50
2022-08-03T00:03:12.236Z,29.40
2022-08-03T00:06:03.858Z,29.50
2022-08-03T00:08:31.968Z,29.50
2022-08-03T00:11:00.958Z,29.40
2022-08-03T00:13:29.927Z,29.20
2022-08-03T00:15:58.842Z,29.10
2022-08-03T00:18:28.023Z,29.10
2022-08-03T00:20:58.601Z,29.10
2022-08-03T00:23:31.717Z,29.20
2022-08-03T00:26:16.496Z,29.10
2022-08-03T00:28:45.477Z,29.10
2022-08-03T00:31:14.579Z,29.30
2022-08-03T00:33:58.341Z,29.30
2022-08-03T00:36:33.659Z,29.20
2022-08-03T00:39:02.867Z,29.20
2022-08-03T00:41:31.975Z,29.10
2022-08-03T00:44:00.855Z,29.10
2022-08-03T00:46:33.072Z,29.40
2022-08-03T00:49:02.122Z,29.50
2022-08-03T00:51:33.200Z,29.50
2022-08-03T00:54:02.842Z,29.50
2022-08-03T00:56:31.783Z,29.30
2022-08-03T00:59:01.033Z,29.30
2022-08-03T01:01:32.607Z,29.30
2022-08-03T01:04:01.822Z,29.40
2022-08-03T01:06:42.657Z,29.40
2022-08-03T01:09:19.239Z,29.40
2022-08-03T01:12:00.690Z,29.10
2022-08-03T01:14:39.371Z,28.90
2022-08-03T01:17:16.204Z,28.80
2022-08-03T01:19:51.233Z,28.80
2022-08-03T01:22:45.835Z,28.80
2022-08-03T01:25:26.221Z,28.70
2022-08-03T01:28:04.408Z,28.90
2022-08-03T01:30:38.477Z,28.90
2022-08-03T01:33:13.995Z,29.10
2022-08-03T01:35:46.826Z,29.00
2022-08-03T01:38:19.621Z,28.80
2022-08-03T01:40:49.239Z,28.90
2022-08-03T01:44:26.406Z,29.10
2022-08-03T01:46:13.074Z,29.10
2022-08-03T01:48:44.971Z,29.00
2022-08-03T01:51:17.006Z,29.00
2022-08-03T01:53:46.918Z,29.00
2022-08-03T01:56:17.249Z,29.00
2022-08-03T01:58:47.975Z,29.10
2022-08-03T02:01:19.446Z,29.10
2022-08-03T02:03:59.930Z,28.80
2022-08-03T02:07:01.206Z,28.90
2022-08-03T02:09:24.958Z,29.00
2022-08-03T02:11:54.888Z,28.80
2022-08-03T02:14:25.185Z,28.70
2022-08-03T02:16:56.624Z,28.60
2022-08-03T02:19:31.343Z,28.50
2022-08-03T02:22:03.588Z,28.40
2022-08-03T02:24:34.013Z,28.40
2022-08-03T02:27:04.356Z,28.50
2022-08-03T02:29:39.402Z,28.30
2022-08-03T02:32:16.505Z,28.20
2022-08-03T02:34:50.563Z,28.30
2022-08-03T02:37:21.095Z,28.20
2022-08-03T02:39:53.728Z,28.30
2022-08-03T02:42:24.789Z,28.20
2022-08-03T02:44:56.912Z,28.20
2022-08-03T02:47:53.903Z,28.20
2022-08-03T02:50:19.616Z,28.30
2022-08-03T02:52:51.120Z,28.10
2022-08-03T02:55:23.087Z,28.10
2022-08-03T02:57:53.125Z,28.20
2022-08-03T03:00:27.977Z,28.10
2022-08-03T03:03:01.067Z,28.30
2022-08-03T03:05:52.355Z,28.30
2022-08-03T03:08:27.457Z,28.30
2022-08-03T03:11:02.537Z,28.30
2022-08-03T03:13:32.743Z,28.50
2022-08-03T03:16:04.674Z,28.50
2022-08-03T03:18:36.386Z,28.40
2022-08-03T03:21:07.005Z,28.30
2022-08-03T03:23:38.014Z,28.40
2022-08-03T03:26:08.396Z,28.40
2022-08-03T03:28:38.352Z,28.50
2022-08-03T03:31:08.682Z,28.40
2022-08-03T03:33:39.891Z,28.20
2022-08-03T03:36:09.307Z,28.30
2022-08-03T03:38:38.817Z,28.40
2022-08-03T03:41:07.835Z,28.40
2022-08-03T03:43:36.917Z,28.40
2022-08-03T03:46:06.318Z,28.40
2022-08-03T03:48:35.603Z,28.40
2022-08-03T03:51:06.072Z,28.20
2022-08-03T03:53:35.246Z,28.30
2022-08-03T03:56:04.360Z,28.10
2022-08-03T03:58:34.244Z,28.20
2022-08-03T04:01:03.698Z,28.30
2022-08-03T04:03:32.736Z,28.30
2022-08-03T04:06:19.449Z,28.30
2022-08-03T04:09:07.491Z,28.30
2022-08-03T04:11:42.126Z,28.30
2022-08-03T04:14:14.589Z,28.30
2022-08-03T04:16:47.781Z,28.20
2022-08-03T04:19:23.248Z,28.30
2022-08-03T04:21:57.285Z,28.30
2022-08-03T04:24:34.244Z,28.30
2022-08-03T04:27:06.590Z,28.40
2022-08-03T04:29:38.709Z,28.40
2022-08-03T04:32:18.911Z,28.40
2022-08-03T04:34:50.544Z,28.40
2022-08-03T04:37:28.074Z,28.30
2022-08-03T04:40:00.074Z,28.40
2022-08-03T04:42:30.187Z,28.40
2022-08-03T04:45:01.654Z,28.30
2022-08-03T04:47:35.754Z,28.30
2022-08-03T04:50:11.882Z,28.30
2022-08-03T04:52:43.093Z,28.30
2022-08-03T04:55:13.688Z,28.30
2022-08-03T04:57:42.613Z,28.30
2022-08-03T05:00:12.830Z,28.20
2022-08-03T05:02:41.893Z,28.10
2022-08-03T05:05:12.156Z,28.20
2022-08-03T05:07:44.926Z,28.10
2022-08-03T05:10:16.851Z,28.20
2022-08-03T05:12:49.085Z,28.30
2022-08-03T05:15:18.061Z,28.30
2022-08-03T05:17:47.180Z,28.40
2022-08-03T05:20:16.553Z,28.40
2022-08-03T05:22:47.966Z,28.40
2022-08-03T05:25:19.840Z,28.40
2022-08-03T05:27:50.577Z,28.30
2022-08-03T05:30:30.907Z,28.30
2022-08-03T05:33:05.023Z,28.30
2022-08-03T05:36:00.784Z,28.20
2022-08-03T05:38:33.887Z,28.30
2022-08-03T05:41:22.813Z,28.40
2022-08-03T05:43:54.261Z,28.50
2022-08-03T05:46:23.954Z,28.50
2022-08-03T05:48:53.217Z,28.50
2022-08-03T05:51:22.403Z,28.50
2022-08-03T05:53:51.739Z,28.60
2022-08-03T05:56:26.115Z,28.70
2022-08-03T05:58:55.362Z,28.70
2022-08-03T06:01:24.358Z,28.70
2022-08-03T06:03:53.928Z,28.70
2022-08-03T06:06:23.096Z,28.80
2022-08-03T06:08:53.077Z,28.80
2022-08-03T06:11:21.926Z,28.90
2022-08-03T06:13:57.665Z,28.90
2022-08-03T06:16:26.751Z,29.00
2022-08-03T06:18:55.725Z,28.90
2022-08-03T06:21:24.794Z,29.00
2022-08-03T06:23:57.196Z,29.00
2022-08-03T06:26:28.105Z,29.10
2022-08-03T06:28:58.599Z,29.10
2022-08-03T06:31:33.395Z,29.10
2022-08-03T06:34:33.228Z,29.00
2022-08-03T06:36:58.601Z,29.20
2022-08-03T06:39:31.126Z,29.40
2022-08-03T06:42:00.182Z,29.40
2022-08-03T06:44:30.702Z,29.50
2022-08-03T06:47:00.058Z,29.50
2022-08-03T06:49:29.247Z,29.50
2022-08-03T06:52:04.030Z,29.70
2022-08-03T06:54:37.131Z,29.80
2022-08-03T06:57:08.480Z,29.90
2022-08-03T07:00:08.292Z,30.00
2022-08-03T07:02:28.403Z,30.00
2022-08-03T07:04:58.948Z,30.10
2022-08-03T07:07:30.878Z,30.10
2022-08-03T07:10:00.065Z,30.20
2022-08-03T07:12:32.274Z,30.30
2022-08-03T07:15:03.756Z,30.30
2022-08-03T07:17:35.428Z,30.30
2022-08-03T07:20:07.155Z,30.40
2022-08-03T07:22:36.903Z,30.50
2022-08-03T07:25:08.273Z,30.70
2022-08-03T07:27:38.679Z,30.80
2022-08-03T07:30:10.751Z,30.90
2022-08-03T07:32:50.343Z,31.00
2022-08-03T07:35:24.461Z,31.00
2022-08-03T07:37:55.171Z,31.10
2022-08-03T07:40:25.103Z,31.30
2022-08-03T07:42:59.965Z,31.20
2022-08-03T07:45:31.003Z,31.30
2022-08-03T07:47:59.895Z,31.20
2022-08-03T07:50:29.188Z,31.20
2022-08-03T07:52:59.944Z,31.30
2022-08-03T07:55:36.707Z,31.30
2022-08-03T07:58:07.855Z,31.30
2022-08-03T08:00:38.414Z,31.40
2022-08-03T08:03:07.613Z,31.30
2022-08-03T08:05:36.691Z,31.50
2022-08-03T08:08:06.505Z,31.60
2022-08-03T08:10:35.848Z,31.70
2022-08-03T08:13:05.292Z,31.80
2022-08-03T08:15:42.972Z,31.80
2022-08-03T08:18:13.059Z,31.80
2022-08-03T08:20:42.520Z,31.90
2022-08-03T08:23:40.844Z,32.00
2022-08-03T08:26:01.890Z,32.00
2022-08-03T08:28:33.693Z,32.10
2022-08-03T08:31:04.499Z,32.10
2022-08-03T08:34:02.519Z,32.00
2022-08-03T08:36:24.241Z,32.00
2022-08-03T08:38:53.174Z,32.10
2022-08-03T08:41:22.390Z,32.20
2022-08-03T08:44:20.666Z,32.20
2022-08-03T08:46:52.093Z,32.20
2022-08-03T08:49:24.806Z,32.20
2022-08-03T08:52:00.901Z,32.40
2022-08-03T08:54:34.520Z,32.60
2022-08-03T08:57:16.503Z,32.60
2022-08-03T08:59:57.432Z,32.60
2022-08-03T09:02:30.685Z,32.80
2022-08-03T09:05:05.316Z,32.90
2022-08-03T09:07:36.657Z,33.10
2022-08-03T09:10:13.053Z,33.00
2022-08-03T09:12:44.806Z,32.90
2022-08-03T09:15:25.573Z,32.80
2022-08-03T09:17:58.007Z,32.60
2022-08-03T09:20:29.361Z,32.80
2022-08-03T09:23:00.943Z,32.90
2022-08-03T09:25:31.968Z,33.10
2022-08-03T09:28:10.362Z,33.20
2022-08-03T09:30:41.400Z,33.50
2022-08-03T09:33:15.173Z,33.50
2022-08-03T09:35:54.513Z,33.40
2022-08-03T09:38:27.751Z,33.10
2022-08-03T09:41:00.394Z,33.40
2022-08-03T09:43:29.949Z,33.40
2022-08-03T09:46:05.720Z,33.40
2022-08-03T09:48:37.625Z,33.60
2022-08-03T09:51:14.425Z,33.40
2022-08-03T09:54:05.764Z,33.60
2022-08-03T09:56:42.928Z,33.70
2022-08-03T09:59:13.396Z,33.90
2022-08-03T10:01:43.056Z,34.10
2022-08-03T10:04:18.284Z,33.70
2022-08-03T10:07:02.364Z,33.50
2022-08-03T10:09:31.568Z,33.40
2022-08-03T10:12:19.682Z,33.30
2022-08-03T10:14:49.613Z,33.40
2022-08-03T10:17:18.808Z,33.70
2022-08-03T10:19:50.846Z,33.80
2022-08-03T10:22:23.704Z,34.00
2022-08-03T10:24:59.944Z,34.00
2022-08-03T10:27:33.818Z,34.00
2022-08-03T10:30:05.847Z,33.80
2022-08-03T10:32:40.229Z,33.80
2022-08-03T10:35:19.999Z,33.80
2022-08-03T10:37:57.261Z,34.10
2022-08-03T10:43:22.067Z,34.20
2022-08-03T10:45:52.226Z,34.20
2022-08-03T10:48:22.101Z,34.20
2022-08-03T10:50:53.097Z,34.10
2022-08-03T10:53:36.888Z,33.80
2022-08-03T10:56:35.713Z,34.10
2022-08-03T10:59:14.693Z,34.10
2022-08-03T11:02:00.993Z,34.10
2022-08-03T11:04:31.071Z,34.30
2022-08-03T11:07:24.229Z,34.40
2022-08-03T11:09:54.374Z,34.10
2022-08-03T11:12:28.381Z,34.40
2022-08-03T11:15:04.606Z,34.30
2022-08-03T11:17:46.298Z,34.20
2022-08-03T11:20:45.654Z,34.00
2022-08-03T11:23:17.265Z,34.00
2022-08-03T11:26:17.589Z,34.10
2022-08-03T11:28:48.256Z,34.00
2022-08-03T11:31:50.731Z,34.30
2022-08-03T11:34:20.702Z,34.40
2022-08-03T11:37:31.352Z,34.40
2022-08-03T11:40:04.384Z,34.30
2022-08-03T11:42:45.986Z,34.50
2022-08-03T11:45:15.681Z,34.30
2022-08-03T11:47:50.690Z,34.50
2022-08-03T11:50:21.654Z,34.30
2022-08-03T11:52:51.372Z,34.30
2022-08-03T11:55:24.334Z,34.40
2022-08-03T11:58:58.106Z,34.50
2022-08-03T12:00:51.010Z,34.70
2022-08-03T12:03:21.374Z,34.80
2022-08-03T12:05:52.718Z,34.70
2022-08-03T12:08:32.966Z,35.00
2022-08-03T12:11:07.148Z,34.90
2022-08-03T12:13:56.591Z,34.60
2022-08-03T12:16:33.377Z,34.70
2022-08-03T12:19:04.012Z,34.90
2022-08-03T12:21:33.727Z,34.80
2022-08-03T12:24:06.260Z,34.60
2022-08-03T12:26:58.409Z,34.60
2022-08-03T12:29:29.114Z,34.60
2022-08-03T12:31:58.505Z,34.70
2022-08-03T12:34:47.623Z,34.50
2022-08-03T12:37:22.745Z,34.70
2022-08-03T12:40:02.853Z,34.60
2022-08-03T12:42:37.320Z,34.50
2022-08-03T12:45:23.380Z,34.70
2022-08-03T12:47:56.597Z,34.70
2022-08-03T12:50:27.074Z,34.70
2022-08-03T12:52:56.837Z,34.40
2022-08-03T12:55:57.028Z,34.60
2022-08-03T12:58:34.776Z,34.60
2022-08-03T13:01:09.710Z,34.50
2022-08-03T13:03:49.956Z,34.80
2022-08-03T13:06:23.915Z,35.00
2022-08-03T13:09:04.005Z,34.90
2022-08-03T13:11:55.523Z,34.60
2022-08-03T13:14:23.964Z,34.90
2022-08-03T13:16:53.372Z,35.00
2022-08-03T13:19:22.413Z,34.50
2022-08-03T13:21:53.495Z,34.60
2022-08-03T13:24:34.017Z,34.80
2022-08-03T13:27:22.068Z,34.80
2022-08-03T13:29:56.500Z,34.80
2022-08-03T13:32:26.998Z,35.00
2022-08-03T13:34:56.209Z,34.70
2022-08-03T13:37:25.842Z,35.00
2022-08-03T13:39:58.996Z,34.90
2022-08-03T13:42:31.565Z,34.90
2022-08-03T13:45:03.470Z,35.10
2022-08-03T13:47:33.339Z,35.10
2022-08-03T13:50:03.331Z,34.80
2022-08-03T13:52:34.417Z,35.20
2022-08-03T13:55:05.754Z,35.60
2022-08-03T13:58:02.451Z,35.70
2022-08-03T14:00:29.250Z,36.10
2022-08-03T14:03:09.542Z,36.50
2022-08-03T14:05:42.024Z,36.50
2022-08-03T14:08:11.711Z,36.60
2022-08-03T14:10:42.733Z,36.90
2022-08-03T14:13:14.468Z,36.50
2022-08-03T14:15:49.946Z,36.70
2022-08-03T14:18:29.307Z,36.70
2022-08-03T14:21:06.329Z,36.60
2022-08-03T14:23:37.996Z,36.60
2022-08-03T14:26:07.570Z,37.00
2022-08-03T14:28:37.115Z,37.30
2022-08-03T14:31:08.497Z,36.90
2022-08-03T14:33:45.063Z,37.10
2022-08-03T14:36:14.014Z,36.50
2022-08-03T14:38:43.085Z,36.60
2022-08-03T14:41:19.775Z,36.90
2022-08-03T14:44:01.540Z,37.20
2022-08-03T14:46:33.517Z,37.50
2022-08-03T14:50:31.147Z,37.50
2022-08-03T14:51:53.845Z,36.80
2022-08-03T14:54:23.809Z,37.00
2022-08-03T14:56:53.036Z,36.90
2022-08-03T14:59:22.038Z,37.30
2022-08-03T15:02:04.360Z,37.30
2022-08-03T15:04:36.620Z,37.40
2022-08-03T15:07:05.595Z,37.20
2022-08-03T15:09:35.017Z,37.10
2022-08-03T15:12:04.308Z,36.50
2022-08-03T15:14:34.815Z,36.00
2022-08-03T15:17:06.029Z,35.40
2022-08-03T15:20:02.236Z,35.10
2022-08-03T15:22:25.447Z,34.80
2022-08-03T15:26:02.293Z,34.30
2022-08-03T15:28:04.303Z,34.30
2022-08-03T15:30:37.074Z,34.10
2022-08-03T15:33:08.114Z,34.20
2022-08-03T15:35:37.138Z,34.30
2022-08-03T15:38:25.917Z,34.20
2022-08-03T15:40:55.758Z,34.00
2022-08-03T15:43:25.370Z,34.20
2022-08-03T15:46:26.525Z,34.10
2022-08-03T15:48:44.879Z,34.20
2022-08-03T15:51:14.060Z,34.00
2022-08-03T15:53:43.196Z,33.60
2022-08-03T15:56:16.830Z,33.60
2022-08-03T15:59:03.204Z,33.70
2022-08-03T16:01:37.623Z,33.60
2022-08-03T16:04:08.212Z,33.70
2022-08-03T16:06:37.196Z,33.60
2022-08-03T16:09:23.102Z,33.60
2022-08-03T16:11:57.111Z,33.60
2022-08-03T16:14:34.780Z,33.50
2022-08-03T16:17:25.101Z,33.60
2022-08-03T16:19:55.803Z,33.50
2022-08-03T16:22:25.875Z,33.50
2022-08-03T16:24:55.877Z,33.50
2022-08-03T16:28:00.509Z,33.40
2022-08-03T16:30:16.882Z,33.40
2022-08-03T16:32:46.581Z,33.40
2022-08-03T16:35:19.157Z,33.20
2022-08-03T16:37:56.173Z,33.10
2022-08-03T16:40:27.044Z,33.00
2022-08-03T16:42:56.177Z,32.80
2022-08-03T16:45:25.600Z,32.90
2022-08-03T16:48:05.675Z,33.00
2022-08-03T16:50:37.689Z,33.00
2022-08-03T16:53:09.014Z,32.80
2022-08-03T16:55:49.065Z,32.80
2022-08-03T16:58:24.445Z,32.80
2022-08-03T17:01:10.964Z,33.00
2022-08-03T17:04:01.990Z,32.80
2022-08-03T17:06:37.857Z,32.70
2022-08-03T17:09:09.658Z,32.80
2022-08-03T17:11:47.072Z,32.80
2022-08-03T17:14:22.026Z,32.60
2022-08-03T17:16:54.620Z,32.60
2022-08-03T17:19:26.584Z,32.70
2022-08-03T17:22:04.242Z,32.70
2022-08-03T17:24:41.098Z,32.60
2022-08-03T17:28:42.203Z,32.40
2022-08-03T17:30:08.411Z,32.20
2022-08-03T17:32:42.615Z,32.30
2022-08-03T17:35:21.430Z,32.40
2022-08-03T17:38:03.023Z,32.20
2022-08-03T17:40:34.929Z,32.10
2022-08-03T17:44:12.800Z,32.30
2022-08-03T17:45:56.388Z,32.20
2022-08-03T17:48:27.436Z,32.20
2022-08-03T17:51:02.018Z,32.30
2022-08-03T17:53:35.139Z,32.20
2022-08-03T17:56:38.883Z,32.20
2022-08-03T17:59:15.258Z,32.20
2022-08-03T18:02:19.890Z,32.00
2022-08-03T18:05:03.367Z,32.00
2022-08-03T18:07:48.493Z,31.90
2022-08-03T18:10:23.174Z,31.70
2022-08-03T18:12:55.031Z,31.80
2022-08-03T18:15:30.562Z,31.80
2022-08-03T18:18:10.372Z,31.70
2022-08-03T18:20:42.701Z,31.80
2022-08-03T18:23:24.556Z,31.70
2022-08-03T18:25:59.048Z,31.80
2022-08-03T18:28:29.322Z,31.80
2022-08-03T18:30:59.263Z,31.90
2022-08-03T18:34:19.660Z,31.80
2022-08-03T18:36:21.623Z,31.90
2022-08-03T18:39:01.751Z,31.90
2022-08-03T18:41:35.461Z,31.80
2022-08-03T18:44:09.294Z,31.50
2022-08-03T18:47:16.914Z,31.50
2022-08-03T18:49:59.843Z,31.50
2022-08-03T18:52:37.354Z,31.40
2022-08-03T18:55:19.732Z,31.40
2022-08-03T18:57:56.899Z,31.40
2022-08-03T19:00:53.982Z,31.20
2022-08-03T19:03:42.796Z,31.30
2022-08-03T19:06:20.383Z,31.40
2022-08-03T19:08:57.729Z,31.20
2022-08-03T19:12:12.363Z,31.20
2022-08-03T19:14:28.795Z,31.20
2022-08-03T19:17:06.137Z,31.40
2022-08-03T19:19:44.318Z,31.20
2022-08-03T19:22:15.922Z,31.00
2022-08-03T19:24:48.105Z,31.10
2022-08-03T19:27:17.730Z,31.10
2022-08-03T19:29:58.015Z,31.10
2022-08-03T19:32:30.330Z,31.00
2022-08-03T19:35:00.915Z,31.00
2022-08-03T19:37:38.674Z,30.90
2022-08-03T19:40:12.249Z,30.80
2022-08-03T19:42:45.954Z,30.70
2022-08-03T19:45:22.871Z,30.70
2022-08-03T19:48:16.194Z,30.80
2022-08-03T19:50:46.027Z,30.80
2022-08-03T19:53:15.433Z,30.70
2022-08-03T19:55:47.523Z,30.80
2022-08-03T19:58:24.476Z,30.70
2022-08-03T20:00:59.694Z,30.70
2022-08-03T20:03:49.746Z,30.90
2022-08-03T20:06:19.607Z,30.70
2022-08-03T20:08:51.756Z,31.00
2022-08-03T20:11:28.641Z,31.10
2022-08-03T20:13:59.705Z,31.00
2022-08-03T20:16:30.075Z,31.20
2022-08-03T20:18:59.416Z,31.20
2022-08-03T20:21:32.890Z,31.20
2022-08-03T20:24:24.287Z,31.20
2022-08-03T20:26:56.710Z,31.20
2022-08-03T20:29:42.813Z,31.20
2022-08-03T20:32:24.754Z,31.10
2022-08-03T20:34:54.513Z,31.10
2022-08-03T20:37:24.449Z,31.10
2022-08-03T20:39:54.714Z,31.10
2022-08-03T20:42:24.009Z,31.00
2022-08-03T20:45:04.474Z,30.90
2022-08-03T20:47:36.541Z,30.90
2022-08-03T20:50:12.310Z,30.90
2022-08-03T20:52:49.423Z,30.80
2022-08-03T20:55:20.148Z,30.80
2022-08-03T20:57:51.772Z,30.70
2022-08-03T21:00:21.934Z,30.80
2022-08-03T21:02:52.618Z,30.90
2022-08-03T21:05:47.777Z,30.90
2022-08-03T21:08:13.152Z,30.70
2022-08-03T21:10:46.841Z,30.70
2022-08-03T21:13:24.755Z,30.60
2022-08-03T21:16:12.564Z,30.70
2022-08-03T21:18:47.821Z,30.70
2022-08-03T21:21:19.226Z,30.60
2022-08-03T21:23:51.857Z,30.60
2022-08-03T21:26:23.374Z,30.50
2022-08-03T21:28:53.530Z,30.50
2022-08-03T21:31:25.368Z,30.60
2022-08-03T21:33:58.967Z,30.50
2022-08-03T21:36:29.096Z,30.60
2022-08-03T21:38:58.357Z,30.70
2022-08-03T21:41:29.230Z,30.60
2022-08-03T21:43:58.475Z,30.60
2022-08-03T21:46:31.136Z,30.70
2022-08-03T21:50:05.078Z,30.80
2022-08-03T21:51:55.741Z,30.70
2022-08-03T21:54:31.312Z,30.60
2022-08-03T21:57:05.458Z,30.60
2022-08-03T21:59:38.411Z,30.40
2022-08-03T22:02:24.095Z,30.50
2022-08-03T22:04:57.283Z,30.50
2022-08-03T22:07:27.790Z,30.50
2022-08-03T22:09:58.234Z,30.40
2022-08-03T22:12:28.910Z,30.40
2022-08-03T22:15:01.570Z,30.50
2022-08-03T22:17:55.936Z,30.50
2022-08-03T22:20:25.378Z,30.40
2022-08-03T22:22:57.140Z,30.30
2022-08-03T22:25:30.103Z,30.40
2022-08-03T22:28:01.537Z,30.50
2022-08-03T22:30:31.755Z,30.50
2022-08-03T22:33:02.718Z,30.50
2022-08-03T22:35:44.308Z,30.60
2022-08-03T22:38:18.028Z,30.50
2022-08-03T22:40:50.080Z,30.40
2022-08-03T22:43:19.266Z,30.50
2022-08-03T22:46:10.275Z,30.40
2022-08-03T22:48:41.033Z,30.30
2022-08-03T22:51:11.993Z,30.40
2022-08-03T22:53:41.939Z,30.40
2022-08-03T22:56:11.267Z,30.30
2022-08-03T22:58:40.174Z,30.30
2022-08-03T23:01:10.482Z,30.20
2022-08-03T23:03:59.943Z,30.00
2022-08-03T23:06:36.055Z,30.20
2022-08-03T23:09:09.660Z,30.20
2022-08-03T23:11:45.580Z,30.10
2022-08-03T23:14:16.917Z,30.00
2022-08-03T23:16:47.610Z,30.10
2022-08-03T23:19:25.170Z,30.20
2022-08-03T23:22:02.431Z,30.20
2022-08-03T23:24:36.291Z,30.10
2022-08-03T23:27:06.473Z,29.90
2022-08-03T23:29:37.716Z,29.80
2022-08-03T23:32:08.096Z,29.80
2022-08-03T23:34:58.634Z,29.70
2022-08-03T23:37:29.090Z,29.60
2022-08-03T23:39:59.898Z,29.60
2022-08-03T23:42:29.634Z,29.60
2022-08-03T23:45:05.758Z,29.50
2022-08-03T23:47:46.426Z,29.60
2022-08-03T23:50:17.056Z,29.70
2022-08-03T23:52:57.373Z,29.50
2022-08-03T23:55:45.761Z,29.40
2022-08-03T23:58:27.974Z,29.50
